sensor_id;sensor_type;location;lat;lon;timestamp;temperature;humidity
2062;DHT22;11070;51.336;12.340;2022-11-15T00:00:53;7.00;1.00
2062;DHT22;11070;51.336;12.340;2022-11-15T00:03:23;7.10;1.00
2062;DHT22;11070;51.336;12.340;2022-11-15T00:05:51;7.10;1.00
2062;DHT22;11070;51.336;12.340;2022-11-15T00:08:17;7.10;1.00
2062;DHT22;11070;51.336;12.340;2022-11-15T00:10:56;7.10;1.00
2062;DHT22;11070;51.336;12.340;2022-11-15T00:13:22;7.10;1.00
2062;DHT22;11070;51.336;12.340;2022-11-15T00:15:48;7.10;1.00
2062;DHT22;11070;51.336;12.340;2022-11-15T00:18:15;7.10;1.00
2062;DHT22;11070;51.336;12.340;2022-11-15T00:20:42;7.20;1.00
2062;DHT22;11070;51.336;12.340;2022-11-15T00:23:08;7.20;1.00
2062;DHT22;11070;51.336;12.340;2022-11-15T00:25:34;7.20;1.00
2062;DHT22;11070;51.336;12.340;2022-11-15T00:28:00;7.20;1.00
2062;DHT22;11070;51.336;12.340;2022-11-15T00:30:26;7.20;1.00
2062;DHT22;11070;51.336;12.340;2022-11-15T00:32:52;7.20;1.00
2062;DHT22;11070;51.336;12.340;2022-11-15T00:35:19;7.20;1.00
2062;DHT22;11070;51.336;12.340;2022-11-15T00:37:45;7.20;1.00
2062;DHT22;11070;51.336;12.340;2022-11-15T00:40:12;7.20;1.00
2062;DHT22;11070;51.336;12.340;2022-11-15T00:42:40;7.20;1.00
2062;DHT22;11070;51.336;12.340;2022-11-15T00:45:07;7.20;1.00
2062;DHT22;11070;51.336;12.340;2022-11-15T00:47:32;7.20;1.00
2062;DHT22;11070;51.336;12.340;2022-11-15T00:49:58;7.20;1.00
2062;DHT22;11070;51.336;12.340;2022-11-15T00:52:24;7.20;1.00
2062;DHT22;11070;51.336;12.340;2022-11-15T00:54:50;7.20;1.00
2062;DHT22;11070;51.336;12.340;2022-11-15T00:57:15;7.20;1.00
2062;DHT22;11070;51.336;12.340;2022-11-15T00:59:41;7.10;1.00
2062;DHT22;11070;51.336;12.340;2022-11-15T01:02:07;7.10;1.00
2062;DHT22;11070;51.336;12.340;2022-11-15T01:04:33;7.10;1.00
2062;DHT22;11070;51.336;12.340;2022-11-15T01:06:58;7.10;1.00
2062;DHT22;11070;51.336;12.340;2022-11-15T01:09:24;7.20;1.00
2062;DHT22;11070;51.336;12.340;2022-11-15T01:11:50;7.10;1.00
2062;DHT22;11070;51.336;12.340;2022-11-15T01:14:15;7.10;1.00
2062;DHT22;11070;51.336;12.340;2022-11-15T01:16:41;7.10;1.00
2062;DHT22;11070;51.336;12.340;2022-11-15T01:19:07;7.10;1.00
2062;DHT22;11070;51.336;12.340;2022-11-15T01:21:33;7.10;1.00
2062;DHT22;11070;51.336;12.340;2022-11-15T01:23:58;7.10;1.00
2062;DHT22;11070;51.336;12.340;2022-11-15T01:26:25;7.10;1.00
2062;DHT22;11070;51.336;12.340;2022-11-15T01:28:51;7.10;1.00
2062;DHT22;11070;51.336;12.340;2022-11-15T01:31:19;7.10;1.00
2062;DHT22;11070;51.336;12.340;2022-11-15T01:33:45;7.10;1.00
2062;DHT22;11070;51.336;12.340;2022-11-15T01:36:14;7.10;1.00
2062;DHT22;11070;51.336;12.340;2022-11-15T01:38:40;7.10;1.00
2062;DHT22;11070;51.336;12.340;2022-11-15T01:41:11;7.10;1.00
2062;DHT22;11070;51.336;12.340;2022-11-15T01:43:39;7.10;1.00
2062;DHT22;11070;51.336;12.340;2022-11-15T01:46:35;7.10;1.00
2062;DHT22;11070;51.336;12.340;2022-11-15T01:49:10;7.10;1.00
2062;DHT22;11070;51.336;12.340;2022-11-15T01:51:37;7.10;1.00
2062;DHT22;11070;51.336;12.340;2022-11-15T01:54:10;7.10;1.00
2062;DHT22;11070;51.336;12.340;2022-11-15T01:56:53;7.10;1.00
2062;DHT22;11070;51.336;12.340;2022-11-15T01:59:22;7.10;1.00
2062;DHT22;11070;51.336;12.340;2022-11-15T02:01:48;7.10;1.00
2062;DHT22;11070;51.336;12.340;2022-11-15T02:04:19;7.10;1.00
2062;DHT22;11070;51.336;12.340;2022-11-15T02:06:47;7.10;1.00
2062;DHT22;11070;51.336;12.340;2022-11-15T02:09:14;7.20;1.00
2062;DHT22;11070;51.336;12.340;2022-11-15T02:11:40;7.20;1.00
2062;DHT22;11070;51.336;12.340;2022-11-15T02:14:07;7.20;1.00
2062;DHT22;11070;51.336;12.340;2022-11-15T02:27:53;7.40;1.00
2062;DHT22;11070;51.336;12.340;2022-11-15T02:30:29;7.40;99.90
2062;DHT22;11070;51.336;12.340;2022-11-15T02:33:14;7.40;1.00
2062;DHT22;11070;51.336;12.340;2022-11-15T02:35:58;7.50;99.90
2062;DHT22;11070;51.336;12.340;2022-11-15T02:38:29;7.50;99.90
2062;DHT22;11070;51.336;12.340;2022-11-15T02:43:51;7.40;99.90
2062;DHT22;11070;51.336;12.340;2022-11-15T02:46:38;7.40;1.00
2062;DHT22;11070;51.336;12.340;2022-11-15T02:49:28;7.50;99.90
2062;DHT22;11070;51.336;12.340;2022-11-15T02:51:55;7.50;99.90
2062;DHT22;11070;51.336;12.340;2022-11-15T02:54:26;7.50;99.90
2062;DHT22;11070;51.336;12.340;2022-11-15T02:56:58;7.50;99.90
2062;DHT22;11070;51.336;12.340;2022-11-15T03:14:01;7.40;99.90
2062;DHT22;11070;51.336;12.340;2022-11-15T03:19:35;7.30;99.90
2062;DHT22;11070;51.336;12.340;2022-11-15T03:22:04;7.30;1.00
2062;DHT22;11070;51.336;12.340;2022-11-15T03:24:33;7.30;1.00
2062;DHT22;11070;51.336;12.340;2022-11-15T03:27:02;7.30;1.00
2062;DHT22;11070;51.336;12.340;2022-11-15T03:29:33;7.30;1.00
2062;DHT22;11070;51.336;12.340;2022-11-15T03:32:10;7.20;99.90
2062;DHT22;11070;51.336;12.340;2022-11-15T03:34:57;7.20;1.00
2062;DHT22;11070;51.336;12.340;2022-11-15T03:37:34;7.20;1.00
2062;DHT22;11070;51.336;12.340;2022-11-15T03:40:02;7.20;1.00
2062;DHT22;11070;51.336;12.340;2022-11-15T03:42:46;7.20;1.00
2062;DHT22;11070;51.336;12.340;2022-11-15T03:45:22;7.20;1.00
2062;DHT22;11070;51.336;12.340;2022-11-15T03:48:01;7.20;1.00
2062;DHT22;11070;51.336;12.340;2022-11-15T03:50:28;7.20;1.00
2062;DHT22;11070;51.336;12.340;2022-11-15T03:52:55;7.20;1.00
2062;DHT22;11070;51.336;12.340;2022-11-15T03:55:21;7.20;1.00
2062;DHT22;11070;51.336;12.340;2022-11-15T03:57:51;7.20;1.00
2062;DHT22;11070;51.336;12.340;2022-11-15T04:00:18;7.20;1.00
2062;DHT22;11070;51.336;12.340;2022-11-15T04:02:44;7.10;1.00
2062;DHT22;11070;51.336;12.340;2022-11-15T04:05:10;7.10;1.00
2062;DHT22;11070;51.336;12.340;2022-11-15T04:07:36;7.10;1.00
2062;DHT22;11070;51.336;12.340;2022-11-15T04:10:02;7.20;1.00
2062;DHT22;11070;51.336;12.340;2022-11-15T04:12:35;7.20;1.00
2062;DHT22;11070;51.336;12.340;2022-11-15T04:15:04;7.20;1.00
2062;DHT22;11070;51.336;12.340;2022-11-15T04:17:37;7.20;1.00
2062;DHT22;11070;51.336;12.340;2022-11-15T04:20:12;7.20;1.00
2062;DHT22;11070;51.336;12.340;2022-11-15T04:22:58;7.20;1.00
2062;DHT22;11070;51.336;12.340;2022-11-15T04:25:43;7.20;1.00
2062;DHT22;11070;51.336;12.340;2022-11-15T04:28:09;7.10;1.00
2062;DHT22;11070;51.336;12.340;2022-11-15T04:30:35;7.10;1.00
2062;DHT22;11070;51.336;12.340;2022-11-15T04:33:01;7.00;1.00
2062;DHT22;11070;51.336;12.340;2022-11-15T04:35:27;7.10;1.00
2062;DHT22;11070;51.336;12.340;2022-11-15T04:37:53;7.10;1.00
2062;DHT22;11070;51.336;12.340;2022-11-15T04:40:19;7.00;1.00
2062;DHT22;11070;51.336;12.340;2022-11-15T04:42:45;7.00;1.00
2062;DHT22;11070;51.336;12.340;2022-11-15T04:45:11;7.00;1.00
2062;DHT22;11070;51.336;12.340;2022-11-15T04:47:37;7.00;1.00
2062;DHT22;11070;51.336;12.340;2022-11-15T04:50:03;7.10;1.00
2062;DHT22;11070;51.336;12.340;2022-11-15T04:52:28;7.10;1.00
2062;DHT22;11070;51.336;12.340;2022-11-15T04:54:54;7.10;1.00
2062;DHT22;11070;51.336;12.340;2022-11-15T04:57:20;7.10;1.00
2062;DHT22;11070;51.336;12.340;2022-11-15T04:59:46;7.00;1.00
2062;DHT22;11070;51.336;12.340;2022-11-15T05:02:12;7.00;1.00
2062;DHT22;11070;51.336;12.340;2022-11-15T05:04:38;7.00;1.00
2062;DHT22;11070;51.336;12.340;2022-11-15T05:07:05;7.00;1.00
2062;DHT22;11070;51.336;12.340;2022-11-15T05:09:31;7.00;1.00
2062;DHT22;11070;51.336;12.340;2022-11-15T05:11:57;7.00;1.00
2062;DHT22;11070;51.336;12.340;2022-11-15T05:14:23;6.90;1.00
2062;DHT22;11070;51.336;12.340;2022-11-15T05:16:48;7.00;1.00
2062;DHT22;11070;51.336;12.340;2022-11-15T05:19:14;7.00;1.00
2062;DHT22;11070;51.336;12.340;2022-11-15T05:21:40;6.90;1.00
2062;DHT22;11070;51.336;12.340;2022-11-15T05:24:06;6.90;1.00
2062;DHT22;11070;51.336;12.340;2022-11-15T05:26:32;6.90;1.00
2062;DHT22;11070;51.336;12.340;2022-11-15T05:28:59;6.90;1.00
2062;DHT22;11070;51.336;12.340;2022-11-15T05:31:25;6.90;1.00
2062;DHT22;11070;51.336;12.340;2022-11-15T05:33:52;6.90;1.00
2062;DHT22;11070;51.336;12.340;2022-11-15T05:36:29;6.90;1.00
2062;DHT22;11070;51.336;12.340;2022-11-15T05:38:56;7.00;1.00
2062;DHT22;11070;51.336;12.340;2022-11-15T05:41:59;7.00;1.00
2062;DHT22;11070;51.336;12.340;2022-11-15T05:44:19;7.10;1.00
2062;DHT22;11070;51.336;12.340;2022-11-15T05:46:47;7.10;1.00
2062;DHT22;11070;51.336;12.340;2022-11-15T05:49:16;7.10;1.00
2062;DHT22;11070;51.336;12.340;2022-11-15T05:51:45;7.10;1.00
2062;DHT22;11070;51.336;12.340;2022-11-15T05:54:11;7.10;1.00
2062;DHT22;11070;51.336;12.340;2022-11-15T05:56:37;7.10;1.00
2062;DHT22;11070;51.336;12.340;2022-11-15T05:59:03;7.10;1.00
2062;DHT22;11070;51.336;12.340;2022-11-15T06:01:29;7.10;1.00
2062;DHT22;11070;51.336;12.340;2022-11-15T06:03:55;7.10;1.00
2062;DHT22;11070;51.336;12.340;2022-11-15T06:06:21;7.00;1.00
2062;DHT22;11070;51.336;12.340;2022-11-15T06:08:47;7.00;1.00
2062;DHT22;11070;51.336;12.340;2022-11-15T06:11:13;7.00;1.00
2062;DHT22;11070;51.336;12.340;2022-11-15T06:13:39;6.90;1.00
2062;DHT22;11070;51.336;12.340;2022-11-15T06:16:05;6.90;1.00
2062;DHT22;11070;51.336;12.340;2022-11-15T06:18:34;6.90;1.00
2062;DHT22;11070;51.336;12.340;2022-11-15T06:21:01;6.90;1.00
2062;DHT22;11070;51.336;12.340;2022-11-15T06:23:27;7.00;1.00
2062;DHT22;11070;51.336;12.340;2022-11-15T06:25:53;7.00;1.00
2062;DHT22;11070;51.336;12.340;2022-11-15T06:28:19;6.90;1.00
2062;DHT22;11070;51.336;12.340;2022-11-15T06:30:45;6.90;1.00
2062;DHT22;11070;51.336;12.340;2022-11-15T06:33:10;6.90;1.00
2062;DHT22;11070;51.336;12.340;2022-11-15T06:35:36;6.90;1.00
2062;DHT22;11070;51.336;12.340;2022-11-15T06:38:07;6.90;1.00
2062;DHT22;11070;51.336;12.340;2022-11-15T06:40:38;6.90;1.00
2062;DHT22;11070;51.336;12.340;2022-11-15T06:43:05;7.00;1.00
2062;DHT22;11070;51.336;12.340;2022-11-15T06:45:31;7.00;1.00
2062;DHT22;11070;51.336;12.340;2022-11-15T06:47:57;7.20;1.00
2062;DHT22;11070;51.336;12.340;2022-11-15T06:50:23;7.40;1.00
2062;DHT22;11070;51.336;12.340;2022-11-15T06:52:49;7.80;1.00
2062;DHT22;11070;51.336;12.340;2022-11-15T06:55:15;8.10;99.90
2062;DHT22;11070;51.336;12.340;2022-11-15T06:57:48;8.50;1.00
2062;DHT22;11070;51.336;12.340;2022-11-15T07:00:15;9.00;13.90
2062;DHT22;11070;51.336;12.340;2022-11-15T07:02:42;9.60;1.00
2062;DHT22;11070;51.336;12.340;2022-11-15T07:05:08;10.10;2.60
2062;DHT22;11070;51.336;12.340;2022-11-15T07:07:34;10.50;1.00
2062;DHT22;11070;51.336;12.340;2022-11-15T07:10:00;10.80;1.00
2062;DHT22;11070;51.336;12.340;2022-11-15T07:12:26;11.30;1.00
2062;DHT22;11070;51.336;12.340;2022-11-15T07:14:52;11.60;1.00
2062;DHT22;11070;51.336;12.340;2022-11-15T07:17:17;11.80;1.00
2062;DHT22;11070;51.336;12.340;2022-11-15T07:19:43;12.10;1.00
2062;DHT22;11070;51.336;12.340;2022-11-15T07:22:09;12.30;1.00
2062;DHT22;11070;51.336;12.340;2022-11-15T07:24:37;12.30;1.00
2062;DHT22;11070;51.336;12.340;2022-11-15T07:27:04;12.00;1.00
2062;DHT22;11070;51.336;12.340;2022-11-15T07:29:30;11.90;1.00
2062;DHT22;11070;51.336;12.340;2022-11-15T07:31:59;12.10;1.00
2062;DHT22;11070;51.336;12.340;2022-11-15T07:34:29;12.90;1.00
2062;DHT22;11070;51.336;12.340;2022-11-15T07:36:54;13.40;1.00
2062;DHT22;11070;51.336;12.340;2022-11-15T07:39:20;14.00;1.00
2062;DHT22;11070;51.336;12.340;2022-11-15T07:41:46;14.90;1.00
2062;DHT22;11070;51.336;12.340;2022-11-15T07:44:13;15.70;99.90
2062;DHT22;11070;51.336;12.340;2022-11-15T07:46:46;16.60;99.90
2062;DHT22;11070;51.336;12.340;2022-11-15T07:49:12;17.20;99.90
2062;DHT22;11070;51.336;12.340;2022-11-15T07:51:39;17.60;99.90
2062;DHT22;11070;51.336;12.340;2022-11-15T07:54:30;17.50;99.90
2062;DHT22;11070;51.336;12.340;2022-11-15T07:56:56;17.00;99.90
2062;DHT22;11070;51.336;12.340;2022-11-15T07:59:25;16.20;99.90
2062;DHT22;11070;51.336;12.340;2022-11-15T08:01:51;15.70;99.90
2062;DHT22;11070;51.336;12.340;2022-11-15T08:04:17;15.40;99.90
2062;DHT22;11070;51.336;12.340;2022-11-15T08:06:43;15.70;99.90
2062;DHT22;11070;51.336;12.340;2022-11-15T08:09:28;15.80;99.90
2062;DHT22;11070;51.336;12.340;2022-11-15T08:11:54;15.90;99.90
2062;DHT22;11070;51.336;12.340;2022-11-15T08:14:20;16.50;99.90
2062;DHT22;11070;51.336;12.340;2022-11-15T08:16:57;17.50;99.90
2062;DHT22;11070;51.336;12.340;2022-11-15T08:19:23;17.20;99.90
2062;DHT22;11070;51.336;12.340;2022-11-15T08:21:49;16.80;99.90
2062;DHT22;11070;51.336;12.340;2022-11-15T08:24:14;16.10;99.90
2062;DHT22;11070;51.336;12.340;2022-11-15T08:26:41;15.60;99.90
2062;DHT22;11070;51.336;12.340;2022-11-15T08:29:07;14.90;99.90
2062;DHT22;11070;51.336;12.340;2022-11-15T08:31:35;15.40;99.90
2062;DHT22;11070;51.336;12.340;2022-11-15T08:34:03;15.90;99.90
2062;DHT22;11070;51.336;12.340;2022-11-15T08:36:30;17.00;99.90
2062;DHT22;11070;51.336;12.340;2022-11-15T08:38:56;17.90;99.90
2062;DHT22;11070;51.336;12.340;2022-11-15T08:41:30;19.40;99.90
2062;DHT22;11070;51.336;12.340;2022-11-15T08:43:56;19.40;99.90
2062;DHT22;11070;51.336;12.340;2022-11-15T08:46:52;19.40;99.90
2062;DHT22;11070;51.336;12.340;2022-11-15T08:49:21;19.80;99.90
2062;DHT22;11070;51.336;12.340;2022-11-15T08:51:51;20.10;99.90
2062;DHT22;11070;51.336;12.340;2022-11-15T08:54:17;20.70;99.90
2062;DHT22;11070;51.336;12.340;2022-11-15T08:56:43;21.50;99.90
2062;DHT22;11070;51.336;12.340;2022-11-15T08:59:08;19.90;99.90
2062;DHT22;11070;51.336;12.340;2022-11-15T09:01:34;19.90;99.90
2062;DHT22;11070;51.336;12.340;2022-11-15T09:06:26;20.80;99.90
2062;DHT22;11070;51.336;12.340;2022-11-15T09:08:52;21.90;99.90
2062;DHT22;11070;51.336;12.340;2022-11-15T09:11:18;22.30;99.90
2062;DHT22;11070;51.336;12.340;2022-11-15T09:13:46;21.60;99.90
2062;DHT22;11070;51.336;12.340;2022-11-15T09:16:12;20.50;99.90
2062;DHT22;11070;51.336;12.340;2022-11-15T09:18:41;20.70;99.90
2062;DHT22;11070;51.336;12.340;2022-11-15T09:21:07;21.10;99.90
2062;DHT22;11070;51.336;12.340;2022-11-15T09:23:33;22.40;99.90
2062;DHT22;11070;51.336;12.340;2022-11-15T09:26:03;22.70;99.90
2062;DHT22;11070;51.336;12.340;2022-11-15T09:28:30;23.80;99.90
2062;DHT22;11070;51.336;12.340;2022-11-15T09:31:01;24.60;99.90
2062;DHT22;11070;51.336;12.340;2022-11-15T09:33:30;25.10;99.90
2062;DHT22;11070;51.336;12.340;2022-11-15T09:36:03;25.00;99.90
2062;DHT22;11070;51.336;12.340;2022-11-15T09:38:30;23.70;99.90
2062;DHT22;11070;51.336;12.340;2022-11-15T09:46:43;21.30;99.90
2062;DHT22;11070;51.336;12.340;2022-11-15T09:49:14;20.60;99.90
2062;DHT22;11070;51.336;12.340;2022-11-15T09:51:47;20.70;99.90
2062;DHT22;11070;51.336;12.340;2022-11-15T09:56:47;21.80;99.90
2062;DHT22;11070;51.336;12.340;2022-11-15T10:04:41;21.10;99.90
2062;DHT22;11070;51.336;12.340;2022-11-15T10:10:04;20.50;99.90
2062;DHT22;11070;51.336;12.340;2022-11-15T10:12:35;20.00;99.90
2062;DHT22;11070;51.336;12.340;2022-11-15T10:15:05;20.80;99.90
2062;DHT22;11070;51.336;12.340;2022-11-15T10:17:53;21.50;99.90
2062;DHT22;11070;51.336;12.340;2022-11-15T10:20:24;21.90;99.90
2062;DHT22;11070;51.336;12.340;2022-11-15T10:23:02;23.00;99.90
2062;DHT22;11070;51.336;12.340;2022-11-15T10:25:32;23.20;99.90
2062;DHT22;11070;51.336;12.340;2022-11-15T10:30:52;21.50;99.90
2062;DHT22;11070;51.336;12.340;2022-11-15T10:33:38;22.20;99.90
2062;DHT22;11070;51.336;12.340;2022-11-15T10:36:16;22.20;99.90
2062;DHT22;11070;51.336;12.340;2022-11-15T10:41:34;21.90;99.90
2062;DHT22;11070;51.336;12.340;2022-11-15T10:49:24;20.90;99.90
2062;DHT22;11070;51.336;12.340;2022-11-15T10:52:12;22.20;99.90
2062;DHT22;11070;51.336;12.340;2022-11-15T10:57:20;25.30;99.90
2062;DHT22;11070;51.336;12.340;2022-11-15T10:59:56;25.30;99.90
2062;DHT22;11070;51.336;12.340;2022-11-15T11:02:36;26.10;99.90
2062;DHT22;11070;51.336;12.340;2022-11-15T11:05:06;26.30;99.90
2062;DHT22;11070;51.336;12.340;2022-11-15T11:07:38;27.10;99.90
2062;DHT22;11070;51.336;12.340;2022-11-15T11:10:18;29.30;99.90
2062;DHT22;11070;51.336;12.340;2022-11-15T11:12:45;30.20;99.90
2062;DHT22;11070;51.336;12.340;2022-11-15T11:15:14;29.30;99.90
2062;DHT22;11070;51.336;12.340;2022-11-15T11:18:18;28.50;99.90
2062;DHT22;11070;51.336;12.340;2022-11-15T11:20:53;27.60;99.90
2062;DHT22;11070;51.336;12.340;2022-11-15T11:26:32;25.70;99.90
2062;DHT22;11070;51.336;12.340;2022-11-15T11:32:09;26.40;99.90
2062;DHT22;11070;51.336;12.340;2022-11-15T11:37:49;24.10;99.90
2062;DHT22;11070;51.336;12.340;2022-11-15T11:49:25;26.40;99.90
2062;DHT22;11070;51.336;12.340;2022-11-15T11:55:15;28.60;99.90
2062;DHT22;11070;51.336;12.340;2022-11-15T11:58:03;29.20;99.90
2062;DHT22;11070;51.336;12.340;2022-11-15T12:03:28;29.50;99.90
2062;DHT22;11070;51.336;12.340;2022-11-15T12:05:59;29.30;99.90
2062;DHT22;11070;51.336;12.340;2022-11-15T12:08:47;29.60;99.90
2062;DHT22;11070;51.336;12.340;2022-11-15T12:11:28;30.10;99.90
2062;DHT22;11070;51.336;12.340;2022-11-15T12:14:09;30.50;99.90
2062;DHT22;11070;51.336;12.340;2022-11-15T12:16:38;31.30;99.90
2062;DHT22;11070;51.336;12.340;2022-11-15T12:19:08;31.40;99.90
2062;DHT22;11070;51.336;12.340;2022-11-15T12:27:16;30.20;99.90
2062;DHT22;11070;51.336;12.340;2022-11-15T12:29:54;30.90;99.90
2062;DHT22;11070;51.336;12.340;2022-11-15T12:32:37;29.40;99.90
2062;DHT22;11070;51.336;12.340;2022-11-15T12:35:20;30.10;99.90
2062;DHT22;11070;51.336;12.340;2022-11-15T12:37:51;28.60;99.90
2062;DHT22;11070;51.336;12.340;2022-11-15T12:45:36;29.80;99.90
2062;DHT22;11070;51.336;12.340;2022-11-15T12:51:00;27.30;99.90
2062;DHT22;11070;51.336;12.340;2022-11-15T12:53:31;26.10;99.90
2062;DHT22;11070;51.336;12.340;2022-11-15T12:58:59;25.10;99.90
2062;DHT22;11070;51.336;12.340;2022-11-15T13:06:48;26.10;99.90
2062;DHT22;11070;51.336;12.340;2022-11-15T13:17:53;24.60;99.90
2062;DHT22;11070;51.336;12.340;2022-11-15T13:20:31;23.90;99.90
2062;DHT22;11070;51.336;12.340;2022-11-15T13:23:09;24.40;99.90
2062;DHT22;11070;51.336;12.340;2022-11-15T13:28:31;25.90;99.90
2062;DHT22;11070;51.336;12.340;2022-11-15T13:31:05;26.30;99.90
2062;DHT22;11070;51.336;12.340;2022-11-15T13:33:46;26.50;99.90
2062;DHT22;11070;51.336;12.340;2022-11-15T13:36:15;26.60;99.90
2062;DHT22;11070;51.336;12.340;2022-11-15T13:38:57;24.90;99.90
2062;DHT22;11070;51.336;12.340;2022-11-15T13:41:27;25.10;99.90
2062;DHT22;11070;51.336;12.340;2022-11-15T13:43:54;26.10;99.90
2062;DHT22;11070;51.336;12.340;2022-11-15T13:46:27;26.60;99.90
2062;DHT22;11070;51.336;12.340;2022-11-15T13:49:05;27.00;99.90
2062;DHT22;11070;51.336;12.340;2022-11-15T13:51:50;26.90;99.90
2062;DHT22;11070;51.336;12.340;2022-11-15T13:54:27;26.60;99.90
2062;DHT22;11070;51.336;12.340;2022-11-15T13:56:59;26.90;99.90
2062;DHT22;11070;51.336;12.340;2022-11-15T13:59:32;27.30;99.90
2062;DHT22;11070;51.336;12.340;2022-11-15T14:02:13;27.70;99.90
2062;DHT22;11070;51.336;12.340;2022-11-15T14:04:49;27.80;99.90
2062;DHT22;11070;51.336;12.340;2022-11-15T14:07:20;26.50;99.90
2062;DHT22;11070;51.336;12.340;2022-11-15T14:09:48;26.10;99.90
2062;DHT22;11070;51.336;12.340;2022-11-15T14:12:35;25.50;99.90
2062;DHT22;11070;51.336;12.340;2022-11-15T14:15:30;24.60;99.90
2062;DHT22;11070;51.336;12.340;2022-11-15T14:17:57;23.50;99.90
2062;DHT22;11070;51.336;12.340;2022-11-15T14:20:33;22.60;99.90
2062;DHT22;11070;51.336;12.340;2022-11-15T14:23:05;21.80;99.90
2062;DHT22;11070;51.336;12.340;2022-11-15T14:25:34;21.10;99.90
2062;DHT22;11070;51.336;12.340;2022-11-15T14:28:16;20.50;99.90
2062;DHT22;11070;51.336;12.340;2022-11-15T14:30:57;19.70;99.90
2062;DHT22;11070;51.336;12.340;2022-11-15T14:36:14;19.30;99.90
2062;DHT22;11070;51.336;12.340;2022-11-15T14:38:48;18.90;99.90
2062;DHT22;11070;51.336;12.340;2022-11-15T14:41:25;18.60;99.90
2062;DHT22;11070;51.336;12.340;2022-11-15T14:44:14;18.30;99.90
2062;DHT22;11070;51.336;12.340;2022-11-15T14:46:46;18.20;99.90
2062;DHT22;11070;51.336;12.340;2022-11-15T14:49:16;18.40;99.90
2062;DHT22;11070;51.336;12.340;2022-11-15T14:51:43;18.60;99.90
2062;DHT22;11070;51.336;12.340;2022-11-15T14:54:10;18.90;99.90
2062;DHT22;11070;51.336;12.340;2022-11-15T14:56:41;19.00;99.90
2062;DHT22;11070;51.336;12.340;2022-11-15T14:59:08;18.90;99.90
2062;DHT22;11070;51.336;12.340;2022-11-15T15:01:34;18.60;99.90
2062;DHT22;11070;51.336;12.340;2022-11-15T15:04:01;18.30;99.90
2062;DHT22;11070;51.336;12.340;2022-11-15T15:06:28;17.80;99.90
2062;DHT22;11070;51.336;12.340;2022-11-15T15:08:56;17.30;99.90
2062;DHT22;11070;51.336;12.340;2022-11-15T15:11:28;16.90;99.90
2062;DHT22;11070;51.336;12.340;2022-11-15T15:13:57;16.60;99.90
2062;DHT22;11070;51.336;12.340;2022-11-15T15:16:26;16.30;99.90
2062;DHT22;11070;51.336;12.340;2022-11-15T15:18:55;16.00;99.90
2062;DHT22;11070;51.336;12.340;2022-11-15T15:21:26;15.80;99.90
2062;DHT22;11070;51.336;12.340;2022-11-15T15:23:56;15.60;99.90
2062;DHT22;11070;51.336;12.340;2022-11-15T15:26:23;15.40;99.90
2062;DHT22;11070;51.336;12.340;2022-11-15T15:28:50;15.20;99.90
2062;DHT22;11070;51.336;12.340;2022-11-15T15:31:17;15.10;99.90
2062;DHT22;11070;51.336;12.340;2022-11-15T15:33:44;15.00;99.90
2062;DHT22;11070;51.336;12.340;2022-11-15T15:36:12;14.80;99.90
2062;DHT22;11070;51.336;12.340;2022-11-15T15:38:44;14.70;99.90
2062;DHT22;11070;51.336;12.340;2022-11-15T15:41:14;14.60;99.90
2062;DHT22;11070;51.336;12.340;2022-11-15T15:43:41;14.40;99.90
2062;DHT22;11070;51.336;12.340;2022-11-15T15:46:15;14.30;99.90
2062;DHT22;11070;51.336;12.340;2022-11-15T15:48:42;14.20;99.90
2062;DHT22;11070;51.336;12.340;2022-11-15T15:51:09;14.00;1.00
2062;DHT22;11070;51.336;12.340;2022-11-15T15:53:35;13.90;1.00
2062;DHT22;11070;51.336;12.340;2022-11-15T15:56:02;13.80;1.00
2062;DHT22;11070;51.336;12.340;2022-11-15T15:58:28;13.70;1.00
2062;DHT22;11070;51.336;12.340;2022-11-15T16:00:55;13.60;1.00
2062;DHT22;11070;51.336;12.340;2022-11-15T16:03:21;13.50;1.00
2062;DHT22;11070;51.336;12.340;2022-11-15T16:05:50;13.40;1.00
2062;DHT22;11070;51.336;12.340;2022-11-15T16:08:41;13.30;1.00
2062;DHT22;11070;51.336;12.340;2022-11-15T16:11:07;13.30;1.00
2062;DHT22;11070;51.336;12.340;2022-11-15T16:13:34;13.20;1.00
2062;DHT22;11070;51.336;12.340;2022-11-15T16:16:00;13.10;1.00
2062;DHT22;11070;51.336;12.340;2022-11-15T16:18:30;13.00;1.00
2062;DHT22;11070;51.336;12.340;2022-11-15T16:21:03;13.00;1.00
2062;DHT22;11070;51.336;12.340;2022-11-15T16:23:32;12.90;1.00
2062;DHT22;11070;51.336;12.340;2022-11-15T16:26:00;12.90;1.00
2062;DHT22;11070;51.336;12.340;2022-11-15T16:28:32;12.80;1.00
2062;DHT22;11070;51.336;12.340;2022-11-15T16:31:23;12.80;1.00
2062;DHT22;11070;51.336;12.340;2022-11-15T16:36:26;12.60;1.00
2062;DHT22;11070;51.336;12.340;2022-11-15T16:38:57;12.60;1.00
2062;DHT22;11070;51.336;12.340;2022-11-15T16:41:54;12.40;1.00
2062;DHT22;11070;51.336;12.340;2022-11-15T16:50:47;12.20;1.00
2062;DHT22;11070;51.336;12.340;2022-11-15T16:53:23;12.00;1.00
2062;DHT22;11070;51.336;12.340;2022-11-15T17:08:12;11.60;52.70
2062;DHT22;11070;51.336;12.340;2022-11-15T17:13:59;11.40;99.90
2062;DHT22;11070;51.336;12.340;2022-11-15T17:16:44;11.40;99.90
2062;DHT22;11070;51.336;12.340;2022-11-15T17:37:31;11.10;1.00
2062;DHT22;11070;51.336;12.340;2022-11-15T17:39:58;11.00;1.00
2062;DHT22;11070;51.336;12.340;2022-11-15T17:42:28;11.00;99.90
2062;DHT22;11070;51.336;12.340;2022-11-15T17:44:55;10.90;99.90
2062;DHT22;11070;51.336;12.340;2022-11-15T17:47:22;10.90;1.00
2062;DHT22;11070;51.336;12.340;2022-11-15T17:49:55;10.80;99.90
2062;DHT22;11070;51.336;12.340;2022-11-15T17:52:21;10.70;99.90
2062;DHT22;11070;51.336;12.340;2022-11-15T17:54:48;10.50;1.00
2062;DHT22;11070;51.336;12.340;2022-11-15T17:57:15;10.50;99.90
2062;DHT22;11070;51.336;12.340;2022-11-15T17:59:41;10.50;1.00
2062;DHT22;11070;51.336;12.340;2022-11-15T18:02:08;10.40;99.90
2062;DHT22;11070;51.336;12.340;2022-11-15T18:04:34;10.40;1.00
2062;DHT22;11070;51.336;12.340;2022-11-15T18:07:01;10.30;99.90
2062;DHT22;11070;51.336;12.340;2022-11-15T18:09:27;10.40;99.90
2062;DHT22;11070;51.336;12.340;2022-11-15T18:11:54;10.40;99.90
2062;DHT22;11070;51.336;12.340;2022-11-15T18:14:20;10.50;99.90
2062;DHT22;11070;51.336;12.340;2022-11-15T18:16:50;10.50;1.00
2062;DHT22;11070;51.336;12.340;2022-11-15T18:19:17;10.50;32.60
2062;DHT22;11070;51.336;12.340;2022-11-15T18:21:44;10.50;1.00
2062;DHT22;11070;51.336;12.340;2022-11-15T18:24:31;10.40;99.90
2062;DHT22;11070;51.336;12.340;2022-11-15T18:27:04;10.40;1.00
2062;DHT22;11070;51.336;12.340;2022-11-15T18:29:33;10.30;1.00
2062;DHT22;11070;51.336;12.340;2022-11-15T18:32:03;10.20;1.00
2062;DHT22;11070;51.336;12.340;2022-11-15T18:34:42;10.10;99.90
2062;DHT22;11070;51.336;12.340;2022-11-15T18:37:08;10.00;99.90
2062;DHT22;11070;51.336;12.340;2022-11-15T18:39:34;10.00;99.90
2062;DHT22;11070;51.336;12.340;2022-11-15T18:45:00;9.90;27.10
2062;DHT22;11070;51.336;12.340;2022-11-15T18:47:36;9.80;1.00
2062;DHT22;11070;51.336;12.340;2022-11-15T18:50:12;9.80;99.90
2062;DHT22;11070;51.336;12.340;2022-11-15T18:52:45;9.80;99.90
2062;DHT22;11070;51.336;12.340;2022-11-15T18:55:12;9.90;1.00